createdAt,value
2022-11-23T00:00:17.856Z,7.20
2022-11-23T00:02:45.137Z,7.30
2022-11-23T00:05:11.838Z,7.10
2022-11-23T00:07:38.674Z,7.50
2022-11-23T00:10:05.973Z,8.80
2022-11-23T00:12:32.668Z,8.30
2022-11-23T00:14:59.361Z,8.10
2022-11-23T00:17:26.046Z,8.00
2022-11-23T00:19:52.733Z,7.90
2022-11-23T00:22:19.552Z,8.20
2022-11-23T00:24:46.364Z,8.30
2022-11-23T00:27:13.528Z,8.40
2022-11-23T00:29:40.204Z,8.40
2022-11-23T00:32:06.903Z,8.40
2022-11-23T00:34:36.776Z,8.60
2022-11-23T00:37:03.456Z,8.00
2022-11-23T00:39:30.436Z,8.50
2022-11-23T00:41:57.211Z,8.10
2022-11-23T00:44:23.908Z,7.70
2022-11-23T00:46:50.696Z,8.10
2022-11-23T00:49:17.369Z,7.50
2022-11-23T00:51:44.010Z,8.00
2022-11-23T00:54:10.665Z,8.10
2022-11-23T00:56:37.336Z,8.00
2022-11-23T00:59:04.833Z,8.50
2022-11-23T01:01:34.188Z,8.20
2022-11-23T01:04:01.777Z,8.40
2022-11-23T01:06:33.060Z,8.90
2022-11-23T01:09:02.405Z,8.50
2022-11-23T01:11:30.175Z,9.00
2022-11-23T01:13:56.890Z,9.00
2022-11-23T01:16:25.354Z,7.40
2022-11-23T01:18:55.840Z,7.80
2022-11-23T01:21:23.343Z,8.60
2022-11-23T01:23:50.345Z,8.70
2022-11-23T01:26:17.766Z,8.80
2022-11-23T01:28:44.432Z,9.30
2022-11-23T01:31:21.911Z,8.80
2022-11-23T01:33:51.107Z,8.80
2022-11-23T01:36:21.041Z,8.90
2022-11-23T01:38:47.942Z,9.20
2022-11-23T01:41:16.190Z,9.10
2022-11-23T01:43:43.137Z,9.10
2022-11-23T01:46:10.163Z,9.30
2022-11-23T01:48:52.931Z,9.70
2022-11-23T01:51:22.200Z,9.20
2022-11-23T01:53:49.490Z,9.20
2022-11-23T01:56:19.227Z,8.60
2022-11-23T01:58:48.969Z,8.90
2022-11-23T02:01:15.864Z,9.30
2022-11-23T02:03:43.107Z,9.60
2022-11-23T02:06:17.955Z,9.70
2022-11-23T02:08:44.925Z,10.00
2022-11-23T02:11:11.929Z,10.30
2022-11-23T02:13:38.624Z,10.60
2022-11-23T02:16:05.447Z,10.70
2022-11-23T02:18:32.351Z,10.20
2022-11-23T02:20:59.458Z,9.90
2022-11-23T02:23:52.152Z,9.80
2022-11-23T02:26:27.388Z,9.50
2022-11-23T02:29:01.958Z,9.60
2022-11-23T02:31:29.678Z,9.70
2022-11-23T02:33:56.352Z,9.60
2022-11-23T02:36:27.900Z,10.00
2022-11-23T02:38:55.473Z,10.40
2022-11-23T02:41:22.340Z,10.50
2022-11-23T02:43:49.018Z,11.20
2022-11-23T02:46:15.774Z,11.70
2022-11-23T02:48:42.598Z,11.00
2022-11-23T02:51:09.251Z,10.90
2022-11-23T02:53:35.907Z,11.20
2022-11-23T02:56:02.695Z,11.50
2022-11-23T02:58:29.379Z,10.70
2022-11-23T03:00:56.361Z,11.20
2022-11-23T03:03:23.184Z,10.10
2022-11-23T03:05:49.873Z,10.50
2022-11-23T03:08:17.001Z,10.40
2022-11-23T03:10:43.696Z,10.10
2022-11-23T03:13:10.970Z,10.20
2022-11-23T03:15:38.424Z,10.10
2022-11-23T03:18:05.230Z,9.90
2022-11-23T03:20:32.255Z,10.30
2022-11-23T03:22:58.918Z,9.60
2022-11-23T03:25:26.312Z,10.60
2022-11-23T03:27:54.360Z,10.40
2022-11-23T03:30:21.269Z,10.10
2022-11-23T03:32:48.021Z,10.30
2022-11-23T03:35:14.860Z,9.70
2022-11-23T03:38:13.549Z,9.50
2022-11-23T03:40:41.784Z,9.20
2022-11-23T03:43:25.604Z,9.60
2022-11-23T03:45:52.228Z,8.30
2022-11-23T03:48:18.977Z,8.90
2022-11-23T03:50:45.721Z,8.70
2022-11-23T03:53:12.505Z,8.40
2022-11-23T03:55:39.202Z,7.20
2022-11-23T03:58:05.906Z,7.30
2022-11-23T04:00:34.633Z,7.90
2022-11-23T04:03:01.436Z,7.50
2022-11-23T04:05:46.656Z,6.80
2022-11-23T04:08:33.557Z,6.60
2022-11-23T04:11:00.628Z,6.90
2022-11-23T04:13:37.052Z,7.50
2022-11-23T04:16:04.094Z,6.80
2022-11-23T04:18:30.746Z,7.10
2022-11-23T04:20:57.505Z,6.30
2022-11-23T04:23:24.714Z,6.30
2022-11-23T04:25:51.352Z,6.50
2022-11-23T04:28:18.397Z,6.20
2022-11-23T04:30:46.130Z,6.20
2022-11-23T04:33:12.893Z,6.10
2022-11-23T04:35:39.655Z,6.40
2022-11-23T04:38:06.592Z,5.90
2022-11-23T04:40:33.360Z,6.30
2022-11-23T04:43:03.623Z,6.20
2022-11-23T04:45:33.181Z,6.20
2022-11-23T04:48:03.852Z,6.10
2022-11-23T04:50:32.135Z,6.20
2022-11-23T04:52:58.840Z,6.30
2022-11-23T04:55:30.753Z,5.80
2022-11-23T04:58:00.726Z,5.60
2022-11-23T05:00:29.406Z,5.70
2022-11-23T05:02:59.783Z,5.40
2022-11-23T05:05:28.873Z,5.00
2022-11-23T05:07:56.939Z,5.20
2022-11-23T05:10:25.772Z,4.80
2022-11-23T05:12:54.705Z,5.00
2022-11-23T05:15:22.095Z,4.80
2022-11-23T05:17:48.825Z,5.50
2022-11-23T05:20:22.210Z,5.90
2022-11-23T05:22:49.306Z,6.00
2022-11-23T05:25:19.376Z,5.20
2022-11-23T05:27:48.956Z,5.30
2022-11-23T05:30:16.591Z,5.40
2022-11-23T05:32:43.359Z,5.50
2022-11-23T05:35:10.253Z,5.40
2022-11-23T05:37:38.079Z,5.50
2022-11-23T05:40:07.133Z,7.40
2022-11-23T05:42:34.368Z,9.50
2022-11-23T05:45:11.477Z,6.80
2022-11-23T05:47:41.371Z,7.70
2022-11-23T05:50:14.419Z,8.20
2022-11-23T05:52:42.434Z,6.40
2022-11-23T05:55:09.169Z,5.80
2022-11-23T05:57:35.868Z,5.70
2022-11-23T06:00:05.568Z,5.50
2022-11-23T06:02:45.342Z,5.80
2022-11-23T06:05:12.091Z,7.80
2022-11-23T06:07:44.707Z,9.40
2022-11-23T06:10:13.343Z,8.60
2022-11-23T06:12:41.891Z,8.30
2022-11-23T06:15:12.295Z,7.70
2022-11-23T06:17:39.275Z,8.70
2022-11-23T06:20:09.390Z,9.40
2022-11-23T06:22:39.207Z,8.20
2022-11-23T06:25:06.736Z,6.30
2022-11-23T06:27:39.107Z,6.90
2022-11-23T06:30:14.562Z,6.10
2022-11-23T06:32:42.712Z,5.80
2022-11-23T06:35:10.001Z,6.20
2022-11-23T06:37:39.034Z,6.20
